sensor_id;sensor_type;location;lat;lon;timestamp;P1;durP1;ratioP1;P2;durP2;ratioP2
51995;SDS011;38010;53.264;6.592;2023-04-01T00:00:54;0.43;;;0.40;;
51995;SDS011;38010;53.264;6.592;2023-04-01T00:03:21;0.30;;;0.30;;
51995;SDS011;38010;53.264;6.592;2023-04-01T00:05:48;1.77;;;0.50;;
51995;SDS011;38010;53.264;6.592;2023-04-01T00:08:14;0.30;;;0.30;;
51995;SDS011;38010;53.264;6.592;2023-04-01T00:10:40;0.57;;;0.40;;
51995;SDS011;38010;53.264;6.592;2023-04-01T00:13:06;0.30;;;0.30;;
51995;SDS011;38010;53.264;6.592;2023-04-01T00:15:32;0.40;;;0.30;;
51995;SDS011;38010;53.264;6.592;2023-04-01T00:17:58;0.63;;;0.40;;
51995;SDS011;38010;53.264;6.592;2023-04-01T00:20:24;0.30;;;0.30;;
51995;SDS011;38010;53.264;6.592;2023-04-01T00:22:50;0.40;;;0.40;;
51995;SDS011;38010;53.264;6.592;2023-04-01T00:25:16;0.35;;;0.30;;
51995;SDS011;38010;53.264;6.592;2023-04-01T00:27:42;0.40;;;0.40;;
51995;SDS011;38010;53.264;6.592;2023-04-01T00:30:07;0.30;;;0.30;;
51995;SDS011;38010;53.264;6.592;2023-04-01T00:32:34;0.35;;;0.32;;
51995;SDS011;38010;53.264;6.592;2023-04-01T00:35:00;0.40;;;0.40;;
51995;SDS011;38010;53.264;6.592;2023-04-01T00:37:26;0.30;;;0.30;;
51995;SDS011;38010;53.264;6.592;2023-04-01T00:39:53;0.85;;;0.40;;
51995;SDS011;38010;53.264;6.592;2023-04-01T00:42:19;0.30;;;0.30;;
51995;SDS011;38010;53.264;6.592;2023-04-01T00:44:45;0.32;;;0.32;;
51995;SDS011;38010;53.264;6.592;2023-04-01T00:47:15;0.30;;;0.30;;
51995;SDS011;38010;53.264;6.592;2023-04-01T00:49:42;0.57;;;0.40;;
51995;SDS011;38010;53.264;6.592;2023-04-01T00:52:12;0.32;;;0.32;;
51995;SDS011;38010;53.264;6.592;2023-04-01T00:54:43;0.20;;;0.20;;
51995;SDS011;38010;53.264;6.592;2023-04-01T00:57:26;0.32;;;0.32;;
51995;SDS011;38010;53.264;6.592;2023-04-01T00:59:56;0.30;;;0.30;;
51995;SDS011;38010;53.264;6.592;2023-04-01T01:02:23;0.30;;;0.30;;
51995;SDS011;38010;53.264;6.592;2023-04-01T01:04:48;0.30;;;0.30;;
51995;SDS011;38010;53.264;6.592;2023-04-01T01:12:46;0.38;;;0.38;;
51995;SDS011;38010;53.264;6.592;2023-04-01T01:15:32;0.25;;;0.25;;
51995;SDS011;38010;53.264;6.592;2023-04-01T01:24:12;0.38;;;0.30;;
51995;SDS011;38010;53.264;6.592;2023-04-01T01:37:38;0.43;;;0.30;;
51995;SDS011;38010;53.264;6.592;2023-04-01T01:40:07;0.40;;;0.40;;
51995;SDS011;38010;53.264;6.592;2023-04-01T01:42:38;0.40;;;0.30;;
51995;SDS011;38010;53.264;6.592;2023-04-01T01:45:07;0.38;;;0.38;;
51995;SDS011;38010;53.264;6.592;2023-04-01T01:47:35;0.52;;;0.52;;
51995;SDS011;38010;53.264;6.592;2023-04-01T01:50:02;0.30;;;0.30;;
51995;SDS011;38010;53.264;6.592;2023-04-01T01:52:30;0.20;;;0.20;;
51995;SDS011;38010;53.264;6.592;2023-04-01T01:54:56;0.40;;;0.30;;
51995;SDS011;38010;53.264;6.592;2023-04-01T01:57:23;0.38;;;0.20;;
51995;SDS011;38010;53.264;6.592;2023-04-01T01:59:55;0.20;;;0.20;;
51995;SDS011;38010;53.264;6.592;2023-04-01T02:02:26;0.30;;;0.30;;
51995;SDS011;38010;53.264;6.592;2023-04-01T02:04:56;0.47;;;0.30;;
51995;SDS011;38010;53.264;6.592;2023-04-01T02:07:27;0.60;;;0.32;;
51995;SDS011;38010;53.264;6.592;2023-04-01T02:09:57;0.25;;;0.25;;
51995;SDS011;38010;53.264;6.592;2023-04-01T02:12:23;0.30;;;0.30;;
51995;SDS011;38010;53.264;6.592;2023-04-01T02:14:53;0.30;;;0.30;;
51995;SDS011;38010;53.264;6.592;2023-04-01T02:17:27;0.28;;;0.28;;
51995;SDS011;38010;53.264;6.592;2023-04-01T02:20:02;0.30;;;0.30;;
51995;SDS011;38010;53.264;6.592;2023-04-01T02:22:43;0.30;;;0.30;;
51995;SDS011;38010;53.264;6.592;2023-04-01T02:25:20;0.57;;;0.38;;
51995;SDS011;38010;53.264;6.592;2023-04-01T02:27:48;0.35;;;0.30;;
51995;SDS011;38010;53.264;6.592;2023-04-01T02:30:15;0.50;;;0.30;;
51995;SDS011;38010;53.264;6.592;2023-04-01T02:32:42;0.50;;;0.40;;
51995;SDS011;38010;53.264;6.592;2023-04-01T02:35:10;1.05;;;0.50;;
51995;SDS011;38010;53.264;6.592;2023-04-01T02:37:38;0.45;;;0.20;;
51995;SDS011;38010;53.264;6.592;2023-04-01T02:40:07;0.68;;;0.40;;
51995;SDS011;38010;53.264;6.592;2023-04-01T02:42:35;0.20;;;0.20;;
51995;SDS011;38010;53.264;6.592;2023-04-01T02:45:02;0.20;;;0.20;;
51995;SDS011;38010;53.264;6.592;2023-04-01T02:47:28;0.30;;;0.30;;
51995;SDS011;38010;53.264;6.592;2023-04-01T02:49:54;0.28;;;0.25;;
51995;SDS011;38010;53.264;6.592;2023-04-01T02:52:24;0.20;;;0.20;;
51995;SDS011;38010;53.264;6.592;2023-04-01T02:54:50;1.20;;;0.40;;
51995;SDS011;38010;53.264;6.592;2023-04-01T02:57:16;0.30;;;0.30;;
51995;SDS011;38010;53.264;6.592;2023-04-01T02:59:42;0.40;;;0.22;;
51995;SDS011;38010;53.264;6.592;2023-04-01T03:02:07;0.38;;;0.38;;
51995;SDS011;38010;53.264;6.592;2023-04-01T03:04:33;0.40;;;0.40;;
51995;SDS011;38010;53.264;6.592;2023-04-01T03:06:59;0.50;;;0.40;;
51995;SDS011;38010;53.264;6.592;2023-04-01T03:09:25;0.35;;;0.30;;
51995;SDS011;38010;53.264;6.592;2023-04-01T03:11:50;0.30;;;0.30;;
51995;SDS011;38010;53.264;6.592;2023-04-01T03:14:16;0.47;;;0.28;;
51995;SDS011;38010;53.264;6.592;2023-04-01T03:16:42;0.30;;;0.30;;
51995;SDS011;38010;53.264;6.592;2023-04-01T03:19:08;0.40;;;0.30;;
51995;SDS011;38010;53.264;6.592;2023-04-01T03:21:33;0.28;;;0.28;;
51995;SDS011;38010;53.264;6.592;2023-04-01T03:23:59;0.20;;;0.20;;
51995;SDS011;38010;53.264;6.592;2023-04-01T03:26:25;0.40;;;0.40;;
51995;SDS011;38010;53.264;6.592;2023-04-01T03:28:52;0.57;;;0.30;;
51995;SDS011;38010;53.264;6.592;2023-04-01T03:31:18;0.43;;;0.40;;
51995;SDS011;38010;53.264;6.592;2023-04-01T03:33:43;0.45;;;0.30;;
51995;SDS011;38010;53.264;6.592;2023-04-01T03:36:09;0.22;;;0.22;;
51995;SDS011;38010;53.264;6.592;2023-04-01T03:38:37;0.30;;;0.30;;
51995;SDS011;38010;53.264;6.592;2023-04-01T03:41:04;0.30;;;0.30;;
51995;SDS011;38010;53.264;6.592;2023-04-01T03:43:30;0.30;;;0.30;;
51995;SDS011;38010;53.264;6.592;2023-04-01T03:45:56;0.30;;;0.30;;
51995;SDS011;38010;53.264;6.592;2023-04-01T03:48:25;0.30;;;0.30;;
51995;SDS011;38010;53.264;6.592;2023-04-01T03:50:50;0.30;;;0.30;;
51995;SDS011;38010;53.264;6.592;2023-04-01T03:53:16;0.32;;;0.30;;
51995;SDS011;38010;53.264;6.592;2023-04-01T03:55:42;0.30;;;0.30;;
51995;SDS011;38010;53.264;6.592;2023-04-01T03:58:08;0.50;;;0.40;;
51995;SDS011;38010;53.264;6.592;2023-04-01T04:00:34;0.30;;;0.30;;
51995;SDS011;38010;53.264;6.592;2023-04-01T04:03:00;0.65;;;0.30;;
51995;SDS011;38010;53.264;6.592;2023-04-01T04:05:26;0.30;;;0.30;;
51995;SDS011;38010;53.264;6.592;2023-04-01T04:07:52;0.43;;;0.30;;
51995;SDS011;38010;53.264;6.592;2023-04-01T04:10:19;0.40;;;0.40;;
51995;SDS011;38010;53.264;6.592;2023-04-01T04:12:45;0.30;;;0.30;;
51995;SDS011;38010;53.264;6.592;2023-04-01T04:15:11;0.50;;;0.30;;
51995;SDS011;38010;53.264;6.592;2023-04-01T04:17:37;0.30;;;0.30;;
51995;SDS011;38010;53.264;6.592;2023-04-01T04:20:03;0.30;;;0.30;;
51995;SDS011;38010;53.264;6.592;2023-04-01T04:22:29;0.40;;;0.40;;
51995;SDS011;38010;53.264;6.592;2023-04-01T04:24:55;0.38;;;0.30;;
51995;SDS011;38010;53.264;6.592;2023-04-01T04:27:21;0.30;;;0.30;;
51995;SDS011;38010;53.264;6.592;2023-04-01T04:29:46;0.40;;;0.40;;
51995;SDS011;38010;53.264;6.592;2023-04-01T04:32:12;0.47;;;0.40;;
51995;SDS011;38010;53.264;6.592;2023-04-01T04:34:38;0.63;;;0.47;;
51995;SDS011;38010;53.264;6.592;2023-04-01T04:37:03;0.40;;;0.40;;
51995;SDS011;38010;53.264;6.592;2023-04-01T04:39:29;0.50;;;0.40;;
51995;SDS011;38010;53.264;6.592;2023-04-01T04:41:55;0.40;;;0.40;;
51995;SDS011;38010;53.264;6.592;2023-04-01T04:44:21;0.40;;;0.40;;
51995;SDS011;38010;53.264;6.592;2023-04-01T04:46:47;0.40;;;0.40;;
51995;SDS011;38010;53.264;6.592;2023-04-01T04:49:13;0.47;;;0.40;;
51995;SDS011;38010;53.264;6.592;2023-04-01T04:51:39;0.30;;;0.30;;
51995;SDS011;38010;53.264;6.592;2023-04-01T04:54:05;0.40;;;0.40;;
51995;SDS011;38010;53.264;6.592;2023-04-01T04:56:32;0.50;;;0.40;;
51995;SDS011;38010;53.264;6.592;2023-04-01T04:58:58;0.40;;;0.40;;
51995;SDS011;38010;53.264;6.592;2023-04-01T05:01:23;0.57;;;0.40;;
51995;SDS011;38010;53.264;6.592;2023-04-01T05:03:50;0.50;;;0.47;;
51995;SDS011;38010;53.264;6.592;2023-04-01T05:06:16;0.60;;;0.40;;
51995;SDS011;38010;53.264;6.592;2023-04-01T05:08:44;0.40;;;0.40;;
51995;SDS011;38010;53.264;6.592;2023-04-01T05:11:14;0.40;;;0.40;;
51995;SDS011;38010;53.264;6.592;2023-04-01T05:13:41;0.40;;;0.40;;
51995;SDS011;38010;53.264;6.592;2023-04-01T05:16:12;0.85;;;0.40;;
51995;SDS011;38010;53.264;6.592;2023-04-01T05:18:39;0.38;;;0.38;;
51995;SDS011;38010;53.264;6.592;2023-04-01T05:21:06;0.40;;;0.40;;
51995;SDS011;38010;53.264;6.592;2023-04-01T05:23:33;0.65;;;0.50;;
51995;SDS011;38010;53.264;6.592;2023-04-01T05:26:04;0.95;;;0.40;;
51995;SDS011;38010;53.264;6.592;2023-04-01T05:28:34;0.40;;;0.40;;
51995;SDS011;38010;53.264;6.592;2023-04-01T05:31:00;0.50;;;0.40;;
51995;SDS011;38010;53.264;6.592;2023-04-01T05:33:28;0.93;;;0.52;;
51995;SDS011;38010;53.264;6.592;2023-04-01T05:35:55;0.40;;;0.40;;
51995;SDS011;38010;53.264;6.592;2023-04-01T05:38:21;0.88;;;0.47;;
51995;SDS011;38010;53.264;6.592;2023-04-01T05:40:47;0.47;;;0.47;;
51995;SDS011;38010;53.264;6.592;2023-04-01T05:43:13;0.40;;;0.40;;
51995;SDS011;38010;53.264;6.592;2023-04-01T05:45:39;0.55;;;0.47;;
51995;SDS011;38010;53.264;6.592;2023-04-01T05:48:04;0.40;;;0.40;;
51995;SDS011;38010;53.264;6.592;2023-04-01T05:50:30;1.02;;;0.40;;
51995;SDS011;38010;53.264;6.592;2023-04-01T05:52:56;0.30;;;0.30;;
51995;SDS011;38010;53.264;6.592;2023-04-01T05:55:22;0.40;;;0.40;;
51995;SDS011;38010;53.264;6.592;2023-04-01T05:57:48;0.60;;;0.50;;
51995;SDS011;38010;53.264;6.592;2023-04-01T06:00:15;0.60;;;0.60;;
51995;SDS011;38010;53.264;6.592;2023-04-01T06:02:41;0.45;;;0.45;;
51995;SDS011;38010;53.264;6.592;2023-04-01T06:07:39;0.40;;;0.40;;
51995;SDS011;38010;53.264;6.592;2023-04-01T06:10:18;0.50;;;0.50;;
51995;SDS011;38010;53.264;6.592;2023-04-01T06:12:50;0.50;;;0.50;;
51995;SDS011;38010;53.264;6.592;2023-04-01T06:15:39;0.50;;;0.50;;
51995;SDS011;38010;53.264;6.592;2023-04-01T06:26:32;0.73;;;0.55;;
51995;SDS011;38010;53.264;6.592;2023-04-01T06:37:35;0.40;;;0.40;;
51995;SDS011;38010;53.264;6.592;2023-04-01T06:44:59;0.93;;;0.50;;
51995;SDS011;38010;53.264;6.592;2023-04-01T06:48:00;0.50;;;0.50;;
51995;SDS011;38010;53.264;6.592;2023-04-01T06:53:39;0.82;;;0.55;;
51995;SDS011;38010;53.264;6.592;2023-04-01T06:56:29;0.50;;;0.50;;
51995;SDS011;38010;53.264;6.592;2023-04-01T06:59:09;0.55;;;0.40;;
51995;SDS011;38010;53.264;6.592;2023-04-01T07:01:45;0.55;;;0.52;;
51995;SDS011;38010;53.264;6.592;2023-04-01T07:04:19;0.63;;;0.60;;
51995;SDS011;38010;53.264;6.592;2023-04-01T07:06:52;0.93;;;0.50;;
51995;SDS011;38010;53.264;6.592;2023-04-01T07:09:34;0.50;;;0.50;;
51995;SDS011;38010;53.264;6.592;2023-04-01T07:12:11;0.60;;;0.60;;
51995;SDS011;38010;53.264;6.592;2023-04-01T07:14:45;0.70;;;0.60;;
51995;SDS011;38010;53.264;6.592;2023-04-01T07:17:23;0.60;;;0.60;;
51995;SDS011;38010;53.264;6.592;2023-04-01T07:22:57;0.68;;;0.68;;
51995;SDS011;38010;53.264;6.592;2023-04-01T07:25:27;1.13;;;0.57;;
51995;SDS011;38010;53.264;6.592;2023-04-01T07:28:06;0.50;;;0.50;;
51995;SDS011;38010;53.264;6.592;2023-04-01T07:30:45;0.63;;;0.60;;
51995;SDS011;38010;53.264;6.592;2023-04-01T07:36:48;0.60;;;0.60;;
51995;SDS011;38010;53.264;6.592;2023-04-01T07:39:41;0.80;;;0.80;;
51995;SDS011;38010;53.264;6.592;2023-04-01T07:45:18;0.60;;;0.60;;
51995;SDS011;38010;53.264;6.592;2023-04-01T07:56:19;0.70;;;0.70;;
51995;SDS011;38010;53.264;6.592;2023-04-01T07:59:01;1.63;;;0.90;;
51995;SDS011;38010;53.264;6.592;2023-04-01T08:01:40;0.60;;;0.60;;
51995;SDS011;38010;53.264;6.592;2023-04-01T08:04:18;0.80;;;0.77;;
51995;SDS011;38010;53.264;6.592;2023-04-01T08:06:59;0.65;;;0.60;;
51995;SDS011;38010;53.264;6.592;2023-04-01T08:14:46;0.65;;;0.65;;
51995;SDS011;38010;53.264;6.592;2023-04-01T08:25:53;0.65;;;0.65;;
51995;SDS011;38010;53.264;6.592;2023-04-01T08:28:29;0.90;;;0.73;;
51995;SDS011;38010;53.264;6.592;2023-04-01T08:33:27;0.70;;;0.60;;
51995;SDS011;38010;53.264;6.592;2023-04-01T08:44:13;0.70;;;0.70;;
51995;SDS011;38010;53.264;6.592;2023-04-01T08:55:27;2.45;;;1.13;;
51995;SDS011;38010;53.264;6.592;2023-04-01T08:58:11;4.70;;;1.20;;
51995;SDS011;38010;53.264;6.592;2023-04-01T09:06:02;5.32;;;1.05;;
51995;SDS011;38010;53.264;6.592;2023-04-01T09:11:26;1.48;;;1.00;;
51995;SDS011;38010;53.264;6.592;2023-04-01T09:34:21;1.25;;;0.82;;
51995;SDS011;38010;53.264;6.592;2023-04-01T09:39:42;4.85;;;0.90;;
51995;SDS011;38010;53.264;6.592;2023-04-01T09:42:45;1.13;;;0.70;;
51995;SDS011;38010;53.264;6.592;2023-04-01T09:51:17;1.00;;;0.70;;
51995;SDS011;38010;53.264;6.592;2023-04-01T09:59:06;0.70;;;0.70;;
51995;SDS011;38010;53.264;6.592;2023-04-01T10:04:17;0.60;;;0.60;;
51995;SDS011;38010;53.264;6.592;2023-04-01T10:15:55;0.50;;;0.50;;
51995;SDS011;38010;53.264;6.592;2023-04-01T10:30:17;1.13;;;0.55;;
51995;SDS011;38010;53.264;6.592;2023-04-01T11:12:26;2.65;;;0.60;;
51995;SDS011;38010;53.264;6.592;2023-04-01T11:15:05;1.88;;;0.52;;
51995;SDS011;38010;53.264;6.592;2023-04-01T11:17:42;0.50;;;0.50;;
51995;SDS011;38010;53.264;6.592;2023-04-01T11:23:09;1.45;;;0.50;;
51995;SDS011;38010;53.264;6.592;2023-04-01T11:33:57;0.70;;;0.50;;
51995;SDS011;38010;53.264;6.592;2023-04-01T11:37:06;1.13;;;0.60;;
51995;SDS011;38010;53.264;6.592;2023-04-01T11:42:35;0.43;;;0.40;;
51995;SDS011;38010;53.264;6.592;2023-04-01T12:01:36;1.95;;;0.43;;
51995;SDS011;38010;53.264;6.592;2023-04-01T12:07:17;1.05;;;0.50;;
51995;SDS011;38010;53.264;6.592;2023-04-01T12:10:17;0.30;;;0.30;;
51995;SDS011;38010;53.264;6.592;2023-04-01T12:12:54;0.95;;;0.50;;
51995;SDS011;38010;53.264;6.592;2023-04-01T12:15:28;1.40;;;0.40;;
51995;SDS011;38010;53.264;6.592;2023-04-01T12:29:58;0.50;;;0.30;;
51995;SDS011;38010;53.264;6.592;2023-04-01T12:32:46;0.52;;;0.30;;
51995;SDS011;38010;53.264;6.592;2023-04-01T12:40:51;0.43;;;0.35;;
51995;SDS011;38010;53.264;6.592;2023-04-01T12:52:09;0.38;;;0.30;;
51995;SDS011;38010;53.264;6.592;2023-04-01T13:03:24;0.38;;;0.30;;
51995;SDS011;38010;53.264;6.592;2023-04-01T13:06:13;0.32;;;0.30;;
51995;SDS011;38010;53.264;6.592;2023-04-01T13:14:21;0.30;;;0.30;;
51995;SDS011;38010;53.264;6.592;2023-04-01T13:44:00;0.47;;;0.30;;
51995;SDS011;38010;53.264;6.592;2023-04-01T14:06:31;0.22;;;0.20;;
51995;SDS011;38010;53.264;6.592;2023-04-01T14:12:27;0.32;;;0.30;;
51995;SDS011;38010;53.264;6.592;2023-04-01T14:15:14;1.10;;;0.22;;
51995;SDS011;38010;53.264;6.592;2023-04-01T14:20:40;0.20;;;0.20;;
51995;SDS011;38010;53.264;6.592;2023-04-01T14:29:02;0.20;;;0.20;;
51995;SDS011;38010;53.264;6.592;2023-04-01T14:50:53;0.20;;;0.20;;
51995;SDS011;38010;53.264;6.592;2023-04-01T14:55:50;0.30;;;0.30;;
51995;SDS011;38010;53.264;6.592;2023-04-01T14:58:17;0.30;;;0.22;;
51995;SDS011;38010;53.264;6.592;2023-04-01T15:03:48;0.47;;;0.30;;
51995;SDS011;38010;53.264;6.592;2023-04-01T15:09:14;0.20;;;0.20;;
51995;SDS011;38010;53.264;6.592;2023-04-01T15:14:51;0.30;;;0.30;;
51995;SDS011;38010;53.264;6.592;2023-04-01T15:20:59;0.30;;;0.28;;
51995;SDS011;38010;53.264;6.592;2023-04-01T15:26:33;0.20;;;0.20;;
51995;SDS011;38010;53.264;6.592;2023-04-01T15:29:04;0.30;;;0.30;;
51995;SDS011;38010;53.264;6.592;2023-04-01T15:31:44;0.20;;;0.20;;
51995;SDS011;38010;53.264;6.592;2023-04-01T15:34:26;0.40;;;0.40;;
51995;SDS011;38010;53.264;6.592;2023-04-01T15:56:42;0.30;;;0.30;;
51995;SDS011;38010;53.264;6.592;2023-04-01T15:59:40;0.60;;;0.40;;
51995;SDS011;38010;53.264;6.592;2023-04-01T16:07:51;0.38;;;0.30;;
51995;SDS011;38010;53.264;6.592;2023-04-01T16:10:31;0.57;;;0.32;;
51995;SDS011;38010;53.264;6.592;2023-04-01T16:18:35;0.30;;;0.30;;
51995;SDS011;38010;53.264;6.592;2023-04-01T16:28:53;0.45;;;0.38;;
51995;SDS011;38010;53.264;6.592;2023-04-01T16:34:01;1.83;;;0.60;;
51995;SDS011;38010;53.264;6.592;2023-04-01T16:36:48;0.40;;;0.40;;
51995;SDS011;38010;53.264;6.592;2023-04-01T16:41:51;2.42;;;0.50;;
51995;SDS011;38010;53.264;6.592;2023-04-01T16:47:35;1.15;;;0.50;;
51995;SDS011;38010;53.264;6.592;2023-04-01T16:50:13;1.30;;;0.40;;
51995;SDS011;38010;53.264;6.592;2023-04-01T16:53:02;1.95;;;0.60;;
51995;SDS011;38010;53.264;6.592;2023-04-01T16:55:55;1.55;;;0.50;;
51995;SDS011;38010;53.264;6.592;2023-04-01T17:01:14;0.63;;;0.47;;
51995;SDS011;38010;53.264;6.592;2023-04-01T17:03:57;0.40;;;0.40;;
51995;SDS011;38010;53.264;6.592;2023-04-01T17:06:41;2.10;;;0.60;;
51995;SDS011;38010;53.264;6.592;2023-04-01T17:15:04;0.77;;;0.47;;
51995;SDS011;38010;53.264;6.592;2023-04-01T17:17:51;0.75;;;0.50;;
51995;SDS011;38010;53.264;6.592;2023-04-01T17:20:42;0.70;;;0.50;;
51995;SDS011;38010;53.264;6.592;2023-04-01T17:26:44;2.92;;;0.70;;
51995;SDS011;38010;53.264;6.592;2023-04-01T17:28:52;0.77;;;0.50;;
51995;SDS011;38010;53.264;6.592;2023-04-01T17:42:22;0.85;;;0.52;;
51995;SDS011;38010;53.264;6.592;2023-04-01T17:45:10;2.33;;;0.60;;
51995;SDS011;38010;53.264;6.592;2023-04-01T17:50:36;1.10;;;0.80;;
51995;SDS011;38010;53.264;6.592;2023-04-01T17:55:41;0.93;;;0.70;;
51995;SDS011;38010;53.264;6.592;2023-04-01T18:01:17;1.80;;;0.60;;
51995;SDS011;38010;53.264;6.592;2023-04-01T18:09:51;1.05;;;0.68;;
51995;SDS011;38010;53.264;6.592;2023-04-01T18:15:12;0.77;;;0.60;;
51995;SDS011;38010;53.264;6.592;2023-04-01T18:26:02;0.57;;;0.57;;
51995;SDS011;38010;53.264;6.592;2023-04-01T18:28:35;0.88;;;0.70;;
51995;SDS011;38010;53.264;6.592;2023-04-01T18:34:18;0.75;;;0.63;;
51995;SDS011;38010;53.264;6.592;2023-04-01T18:36:53;1.30;;;0.70;;
51995;SDS011;38010;53.264;6.592;2023-04-01T18:39:42;1.13;;;0.70;;
51995;SDS011;38010;53.264;6.592;2023-04-01T18:46:05;0.65;;;0.60;;
51995;SDS011;38010;53.264;6.592;2023-04-01T18:56:48;0.90;;;0.60;;
51995;SDS011;38010;53.264;6.592;2023-04-01T19:05:07;1.30;;;0.93;;
51995;SDS011;38010;53.264;6.592;2023-04-01T19:16:04;1.00;;;0.70;;
51995;SDS011;38010;53.264;6.592;2023-04-01T19:21:39;1.33;;;0.80;;
51995;SDS011;38010;53.264;6.592;2023-04-01T19:27:24;1.75;;;0.70;;
51995;SDS011;38010;53.264;6.592;2023-04-01T19:32:45;1.45;;;0.73;;
51995;SDS011;38010;53.264;6.592;2023-04-01T19:35:30;1.40;;;0.75;;
51995;SDS011;38010;53.264;6.592;2023-04-01T19:38:14;1.23;;;0.70;;
51995;SDS011;38010;53.264;6.592;2023-04-01T19:43:52;1.08;;;0.70;;
51995;SDS011;38010;53.264;6.592;2023-04-01T19:46:25;0.60;;;0.60;;
51995;SDS011;38010;53.264;6.592;2023-04-01T19:59:52;2.55;;;0.75;;
51995;SDS011;38010;53.264;6.592;2023-04-01T20:05:21;0.88;;;0.68;;
51995;SDS011;38010;53.264;6.592;2023-04-01T20:08:19;0.93;;;0.63;;
51995;SDS011;38010;53.264;6.592;2023-04-01T20:10:59;1.38;;;0.90;;
51995;SDS011;38010;53.264;6.592;2023-04-01T20:13:48;1.45;;;0.70;;
51995;SDS011;38010;53.264;6.592;2023-04-01T20:16:17;1.33;;;0.73;;
51995;SDS011;38010;53.264;6.592;2023-04-01T20:18:59;1.48;;;0.63;;
51995;SDS011;38010;53.264;6.592;2023-04-01T20:21:41;2.15;;;0.88;;
51995;SDS011;38010;53.264;6.592;2023-04-01T20:26:40;1.95;;;0.82;;
51995;SDS011;38010;53.264;6.592;2023-04-01T20:40:50;1.02;;;0.70;;
51995;SDS011;38010;53.264;6.592;2023-04-01T20:43:35;1.02;;;0.70;;
51995;SDS011;38010;53.264;6.592;2023-04-01T20:52:02;1.88;;;0.90;;
51995;SDS011;38010;53.264;6.592;2023-04-01T21:09:07;0.85;;;0.70;;
51995;SDS011;38010;53.264;6.592;2023-04-01T21:11:51;3.40;;;0.90;;
51995;SDS011;38010;53.264;6.592;2023-04-01T21:14:45;1.38;;;0.95;;
51995;SDS011;38010;53.264;6.592;2023-04-01T21:20:11;1.00;;;0.68;;
51995;SDS011;38010;53.264;6.592;2023-04-01T21:28:29;1.38;;;0.77;;
51995;SDS011;38010;53.264;6.592;2023-04-01T21:31:15;0.68;;;0.60;;
51995;SDS011;38010;53.264;6.592;2023-04-01T22:14:49;0.68;;;0.68;;
51995;SDS011;38010;53.264;6.592;2023-04-01T22:17:33;0.77;;;0.50;;
51995;SDS011;38010;53.264;6.592;2023-04-01T22:20:16;0.70;;;0.55;;
51995;SDS011;38010;53.264;6.592;2023-04-01T22:25:41;0.98;;;0.60;;
51995;SDS011;38010;53.264;6.592;2023-04-01T22:28:15;0.90;;;0.70;;
51995;SDS011;38010;53.264;6.592;2023-04-01T22:30:53;1.67;;;0.70;;
51995;SDS011;38010;53.264;6.592;2023-04-01T22:36:02;1.02;;;0.50;;
51995;SDS011;38010;53.264;6.592;2023-04-01T22:44:34;1.60;;;0.70;;
51995;SDS011;38010;53.264;6.592;2023-04-01T22:47:40;0.70;;;0.60;;
51995;SDS011;38010;53.264;6.592;2023-04-01T22:50:32;0.90;;;0.50;;
51995;SDS011;38010;53.264;6.592;2023-04-01T22:55:44;0.93;;;0.60;;
51995;SDS011;38010;53.264;6.592;2023-04-01T22:58:14;1.50;;;0.70;;
51995;SDS011;38010;53.264;6.592;2023-04-01T23:00:45;1.00;;;0.60;;
51995;SDS011;38010;53.264;6.592;2023-04-01T23:03:20;1.35;;;0.63;;
51995;SDS011;38010;53.264;6.592;2023-04-01T23:05:54;1.17;;;0.60;;
51995;SDS011;38010;53.264;6.592;2023-04-01T23:11:00;0.60;;;0.60;;
51995;SDS011;38010;53.264;6.592;2023-04-01T23:13:34;1.10;;;0.60;;
51995;SDS011;38010;53.264;6.592;2023-04-01T23:16:07;1.23;;;0.60;;
51995;SDS011;38010;53.264;6.592;2023-04-01T23:18:55;0.90;;;0.60;;
51995;SDS011;38010;53.264;6.592;2023-04-01T23:21:36;1.60;;;0.73;;
51995;SDS011;38010;53.264;6.592;2023-04-01T23:24:14;0.55;;;0.50;;
51995;SDS011;38010;53.264;6.592;2023-04-01T23:26:56;0.85;;;0.55;;
51995;SDS011;38010;53.264;6.592;2023-04-01T23:31:58;1.00;;;0.63;;
51995;SDS011;38010;53.264;6.592;2023-04-01T23:34:29;1.02;;;0.70;;
51995;SDS011;38010;53.264;6.592;2023-04-01T23:37:10;0.85;;;0.70;;
51995;SDS011;38010;53.264;6.592;2023-04-01T23:39:38;0.80;;;0.60;;
51995;SDS011;38010;53.264;6.592;2023-04-01T23:42:07;0.88;;;0.60;;
51995;SDS011;38010;53.264;6.592;2023-04-01T23:44:53;0.95;;;0.60;;
51995;SDS011;38010;53.264;6.592;2023-04-01T23:47:26;2.30;;;0.95;;
51995;SDS011;38010;53.264;6.592;2023-04-01T23:50:01;0.93;;;0.63;;
51995;SDS011;38010;53.264;6.592;2023-04-01T23:52:35;0.88;;;0.70;;
51995;SDS011;38010;53.264;6.592;2023-04-01T23:55:14;0.70;;;0.55;;
51995;SDS011;38010;53.264;6.592;2023-04-01T23:58:02;0.63;;;0.52;;
